Time;durP1;ratioP1;P1;durP2;ratioP2;P2;SDS_P1;SDS_P2;PMS_P1;PMS_P2;Temp;Humidity;BMP_temperature;BMP_pressure;BME280_temperature;BME280_humidity;BME280_pressure;Samples;Min_cycle;Max_cycle;Signal;HPM_P1;HPM_P2
2022/04/01 00:02:21;;;;;;;68.03;29.88;;;3.00;83.60;;;;;;5024711;28;20109;-68
2022/04/01 00:04:46;;;;;;;68.47;28.30;;;3.00;83.50;;;;;;5019057;28;20503;-68
2022/04/01 00:07:12;;;;;;;42.92;23.75;;;3.00;83.60;;;;;;5029946;28;20095;-68
2022/04/01 00:09:38;;;;;;;47.17;24.20;;;3.10;82.70;;;;;;5030856;28;20031;-68
2022/04/01 00:12:08;;;;;;;35.75;21.50;;;3.10;82.80;;;;;;5027981;28;20022;-69
2022/04/01 00:14:34;;;;;;;62.55;26.60;;;3.10;83.10;;;;;;5020829;28;20429;-68
2022/04/01 00:17:00;;;;;;;56.65;25.40;;;3.10;83.40;;;;;;5026439;28;20108;-67
2022/04/01 00:19:27;;;;;;;63.90;26.88;;;3.10;83.50;;;;;;5024831;28;20013;-67
2022/04/01 00:21:53;;;;;;;59.95;25.80;;;3.00;83.40;;;;;;5021030;28;20109;-67
2022/04/01 00:24:19;;;;;;;56.70;24.48;;;3.00;83.20;;;;;;5028574;28;20104;-67
2022/04/01 00:26:45;;;;;;;36.15;20.75;;;3.00;83.10;;;;;;5026330;28;20113;-68
2022/04/01 00:29:15;;;;;;;45.72;21.88;;;3.00;82.80;;;;;;5037838;28;20030;-68
2022/04/01 00:31:44;;;;;;;33.05;19.27;;;3.00;83.20;;;;;;5030589;28;20072;-68
2022/04/01 00:34:20;;;;;;;52.13;23.48;;;3.00;82.80;;;;;;5027053;28;20326;-68
2022/04/01 00:36:49;;;;;;;43.80;21.65;;;3.00;83.50;;;;;;5022882;28;20108;-67
2022/04/01 00:39:17;;;;;;;34.35;19.20;;;3.00;83.60;;;;;;5030440;28;20025;-68
2022/04/01 00:41:44;;;;;;;42.97;20.60;;;2.90;83.20;;;;;;5035081;28;20028;-68
2022/04/01 00:44:22;;;;;;;40.83;20.50;;;2.90;83.90;;;;;;5019120;28;20022;-68
2022/04/01 00:46:56;;;;;;;41.58;21.58;;;2.90;84.50;;;;;;5035329;28;20419;-67
2022/04/01 00:49:23;;;;;;;31.20;19.10;;;2.90;84.00;;;;;;5025112;28;20075;-68
2022/04/01 00:51:50;;;;;;;41.35;20.60;;;2.90;83.80;;;;;;5017815;28;20046;-67
2022/04/01 00:54:17;;;;;;;50.75;22.33;;;2.90;84.50;;;;;;5031605;28;20218;-68
2022/04/01 00:56:44;;;;;;;43.33;22.05;;;2.90;84.70;;;;;;5032052;28;20021;-68
2022/04/01 00:59:13;;;;;;;45.75;21.83;;;2.90;84.40;;;;;;5033060;28;20074;-68
2022/04/01 01:01:45;;;;;;;44.83;22.42;;;2.90;84.70;;;;;;5027053;28;20025;-69
2022/04/01 01:04:13;;;;;;;36.08;19.30;;;2.90;84.70;;;;;;5024674;28;20029;-68
2022/04/01 01:07:06;;;;;;;50.58;23.38;;;2.90;84.30;;;;;;5025532;28;20392;-68
2022/04/01 01:09:31;;;;;;;55.15;23.20;;;2.90;84.60;;;;;;5025210;28;20030;-69
2022/04/01 01:11:59;;;;;;;58.30;24.67;;;2.90;85.10;;;;;;5029199;28;20038;-68
2022/04/01 01:14:28;;;;;;;57.50;24.27;;;2.90;84.50;;;;;;5032175;28;20057;-69
2022/04/01 01:16:56;;;;;;;49.65;22.70;;;2.90;84.20;;;;;;5025260;28;20033;-69
2022/04/01 01:19:22;;;;;;;33.75;19.85;;;2.90;84.20;;;;;;5033286;28;20024;-70
2022/04/01 01:21:50;;;;;;;45.13;20.05;;;2.90;83.90;;;;;;5025430;28;20022;-69
2022/04/01 01:24:16;;;;;;;41.13;20.17;;;2.90;84.10;;;;;;5035051;28;20028;-69
2022/04/01 01:26:52;;;;;;;54.92;21.83;;;2.90;83.90;;;;;;5033212;28;20452;-69
2022/04/01 01:29:30;;;;;;;50.97;23.23;;;3.00;84.00;;;;;;5032336;28;20037;-69
2022/04/01 01:32:00;;;;;;;45.53;21.77;;;3.00;84.50;;;;;;5029667;28;20353;-68
2022/04/01 01:34:27;;;;;;;42.63;20.17;;;2.90;84.80;;;;;;5020620;28;20030;-69
2022/04/01 01:36:53;;;;;;;42.03;19.83;;;2.90;84.80;;;;;;5028332;28;20053;-69
2022/04/01 01:39:20;;;;;;;34.60;20.40;;;2.90;84.80;;;;;;5031462;28;20026;-68
2022/04/01 01:41:47;;;;;;;47.70;21.73;;;2.90;84.60;;;;;;5026186;28;20094;-69
2022/04/01 01:44:14;;;;;;;39.67;20.33;;;2.90;84.30;;;;;;5028441;28;20049;-68
2022/04/01 01:46:40;;;;;;;39.10;19.63;;;2.90;84.20;;;;;;5029845;28;20021;-69
2022/04/01 01:49:06;;;;;;;40.42;21.20;;;2.90;84.40;;;;;;5024378;28;20351;-68
2022/04/01 01:57:02;;;;;;;54.97;24.95;;;2.90;84.20;;;;;;5027347;28;20326;-69
2022/04/01 01:59:38;;;;;;;78.57;27.77;;;2.90;84.00;;;;;;5024161;28;20113;-69
2022/04/01 02:02:08;;;;;;;87.60;29.55;;;3.00;83.90;;;;;;5022296;28;20084;-68
2022/04/01 02:04:35;;;;;;;208.98;36.80;;;3.00;83.50;;;;;;5029286;28;20025;-68
2022/04/01 02:07:06;;;;;;;169.77;35.53;;;3.00;83.40;;;;;;5024342;28;20026;-67
2022/04/01 02:09:32;;;;;;;118.65;33.92;;;3.00;83.10;;;;;;5029679;28;20112;-67
2022/04/01 02:11:58;;;;;;;107.85;39.88;;;3.00;82.70;;;;;;5022872;28;20115;-68
2022/04/01 02:14:26;;;;;;;133.23;41.50;;;3.00;82.60;;;;;;5018044;28;20068;-66
2022/04/01 02:16:52;;;;;;;121.97;41.70;;;3.00;82.40;;;;;;5023451;28;20029;-67
2022/04/01 02:19:21;;;;;;;208.05;44.90;;;3.00;82.20;;;;;;5019904;28;20491;-68
2022/04/01 02:21:49;;;;;;;158.88;46.35;;;3.00;82.20;;;;;;5021506;28;20030;-68
2022/04/01 02:24:17;;;;;;;183.30;56.70;;;3.00;82.50;;;;;;5027841;28;20030;-68
2022/04/01 02:26:44;;;;;;;180.05;55.38;;;3.00;82.30;;;;;;5030585;28;20022;-68
2022/04/01 02:29:10;;;;;;;135.23;49.63;;;3.00;82.10;;;;;;5038474;28;20033;-65
2022/04/01 02:31:35;;;;;;;146.43;54.28;;;3.00;82.00;;;;;;5027342;28;20071;-68
2022/04/01 02:34:04;;;;;;;219.85;61.50;;;3.00;81.40;;;;;;5020062;28;20038;-68
2022/04/01 02:36:30;;;;;;;197.13;58.40;;;3.00;82.00;;;;;;5039896;28;20025;-67
2022/04/01 02:38:56;;;;;;;168.18;55.80;;;3.00;81.80;;;;;;5028969;28;20017;-68
2022/04/01 02:41:21;;;;;;;142.80;55.47;;;3.00;82.00;;;;;;5030618;28;20075;-68
2022/04/01 02:43:50;;;;;;;233.45;64.25;;;3.00;81.80;;;;;;5024351;28;20481;-68
2022/04/01 02:46:16;;;;;;;201.15;58.35;;;3.00;81.70;;;;;;5021128;28;20022;-67
2022/04/01 02:48:42;;;;;;;391.67;65.13;;;3.00;81.60;;;;;;5018062;28;20030;-65
2022/04/01 02:51:07;;;;;;;406.08;64.63;;;3.00;81.60;;;;;;5029060;28;20025;-67
2022/04/01 02:53:33;;;;;;;237.75;60.45;;;3.00;82.00;;;;;;5021283;28;20026;-68
2022/04/01 02:55:59;;;;;;;158.75;51.35;;;3.00;81.60;;;;;;5024327;28;20107;-67
2022/04/01 02:58:27;;;;;;;224.85;61.20;;;3.10;81.40;;;;;;5021952;28;20072;-68
2022/04/01 03:00:53;;;;;;;142.60;52.58;;;3.00;81.80;;;;;;5026854;28;20057;-68
2022/04/01 03:03:20;;;;;;;144.18;51.13;;;2.90;82.10;;;;;;5020808;28;20029;-68
2022/04/01 03:05:52;;;;;;;119.07;48.90;;;2.80;82.40;;;;;;5017879;28;20304;-68
2022/04/01 03:08:18;;;;;;;132.00;49.75;;;2.80;82.00;;;;;;5030587;28;20033;-67
2022/04/01 03:10:50;;;;;;;131.27;50.88;;;2.70;81.90;;;;;;5030956;28;20076;-66
2022/04/01 03:13:15;;;;;;;103.32;46.10;;;2.70;82.00;;;;;;5026797;28;20044;-66
2022/04/01 03:15:41;;;;;;;126.07;48.70;;;2.70;82.40;;;;;;5025783;28;20029;-65
2022/04/01 03:18:10;;;;;;;117.68;49.30;;;2.70;82.00;;;;;;5025037;28;20024;-65
2022/04/01 03:20:37;;;;;;;106.07;46.30;;;2.70;82.00;;;;;;5023383;28;20025;-67
2022/04/01 03:23:04;;;;;;;107.82;47.35;;;2.60;82.30;;;;;;5023712;28;20021;-67
2022/04/01 03:25:33;;;;;;;152.68;53.25;;;2.60;82.20;;;;;;5023569;28;20116;-67
2022/04/01 03:28:01;;;;;;;106.72;46.72;;;2.60;82.50;;;;;;5027618;28;20060;-67
2022/04/01 03:30:27;;;;;;;118.78;47.22;;;2.50;82.20;;;;;;5032760;28;20030;-67
2022/04/01 03:32:56;;;;;;;132.25;49.53;;;2.50;82.10;;;;;;5016822;28;20022;-68
2022/04/01 03:35:24;;;;;;;102.68;45.22;;;2.50;82.10;;;;;;5029096;28;20029;-67
2022/04/01 03:37:52;;;;;;;100.53;47.03;;;2.60;82.00;;;;;;5027899;28;20449;-68
2022/04/01 03:40:22;;;;;;;125.82;49.78;;;2.60;81.90;;;;;;5029278;28;20334;-67
2022/04/01 03:42:51;;;;;;;135.18;52.20;;;2.60;82.30;;;;;;5033469;28;20338;-67
2022/04/01 03:45:17;;;;;;;115.93;48.28;;;2.60;82.10;;;;;;5031047;28;20120;-67
2022/04/01 03:48:03;;;;;;;135.05;50.55;;;2.60;82.10;;;;;;5029530;28;20079;-68
2022/04/01 03:50:32;;;;;;;136.18;49.70;;;2.60;82.40;;;;;;5019229;28;20411;-66
2022/04/01 03:53:07;;;;;;;141.65;51.10;;;2.60;82.20;;;;;;5025153;28;20037;-66
2022/04/01 03:55:38;;;;;;;161.10;55.25;;;2.50;82.20;;;;;;5019569;28;20026;-68
2022/04/01 03:58:09;;;;;;;140.60;52.10;;;2.60;82.10;;;;;;5028630;28;20029;-68
2022/04/01 04:00:36;;;;;;;199.10;57.10;;;2.60;82.00;;;;;;5026668;28;20029;-68
2022/04/01 04:03:07;;;;;;;198.45;57.10;;;2.60;81.90;;;;;;5021164;28;20046;-67
2022/04/01 04:05:38;;;;;;;188.00;54.03;;;2.60;81.70;;;;;;5022523;28;20075;-66
2022/04/01 04:08:06;;;;;;;224.88;57.60;;;2.60;81.70;;;;;;5024941;28;20379;-68
2022/04/01 04:10:34;;;;;;;195.25;58.97;;;2.60;82.00;;;;;;5017856;28;20400;-67
2022/04/01 04:13:03;;;;;;;243.85;53.35;;;2.60;81.80;;;;;;5020934;28;20080;-67
2022/04/01 04:15:40;;;;;;;491.90;66.35;;;2.60;81.60;;;;;;5025086;28;20037;-67
2022/04/01 04:18:13;;;;;;;220.70;50.92;;;2.60;81.80;;;;;;5033457;28;20026;-67
2022/04/01 04:20:58;;;;;;;193.85;55.35;;;2.60;81.60;;;;;;5028217;28;20022;-67
2022/04/01 04:23:29;;;;;;;105.78;42.05;;;2.50;81.70;;;;;;5029688;28;20022;-68
2022/04/01 04:25:58;;;;;;;152.25;45.28;;;2.50;81.50;;;;;;5022553;28;20116;-67
2022/04/01 04:28:32;;;;;;;132.48;46.42;;;2.50;81.50;;;;;;5028853;28;20053;-67
2022/04/01 04:31:01;;;;;;;;;;;2.50;81.40;;;;;;5025725;28;20033;-67
2022/04/01 04:33:44;;;;;;;117.18;42.05;;;2.50;81.40;;;;;;5029023;28;20322;-67
2022/04/01 04:36:11;;;;;;;112.38;41.78;;;2.40;81.60;;;;;;5053285;28;20034;-67
2022/04/01 04:38:39;;;;;;;128.43;43.45;;;2.40;81.40;;;;;;5023691;28;20493;-67
2022/04/01 04:41:10;;;;;;;324.90;55.28;;;2.40;81.10;;;;;;5023400;28;20017;-68
2022/04/01 04:43:44;;;;;;;447.85;58.83;;;2.40;81.50;;;;;;5028398;28;20018;-68
2022/04/01 04:46:10;;;;;;;215.52;45.03;;;2.40;81.40;;;;;;5034083;28;20071;-68
2022/04/01 04:48:42;;;;;;;323.73;52.50;;;2.40;81.20;;;;;;5034719;28;20109;-68
2022/04/01 04:51:09;;;;;;;276.38;53.30;;;2.40;81.70;;;;;;5032353;28;20049;-68
2022/04/01 04:53:36;;;;;;;277.90;55.85;;;2.30;81.40;;;;;;5018258;28;20407;-68
2022/04/01 04:56:03;;;;;;;120.65;40.42;;;2.40;81.20;;;;;;5024654;28;20403;-68
2022/04/01 04:58:40;;;;;;;120.20;42.30;;;2.40;81.20;;;;;;5035115;28;20033;-68
2022/04/01 05:01:24;;;;;;;229.38;46.30;;;2.30;81.50;;;;;;5028473;28;20022;-68
2022/04/01 05:04:17;;;;;;;135.30;42.72;;;2.20;81.50;;;;;;5030113;28;20026;-66
2022/04/01 05:06:52;;;;;;;102.88;38.40;;;2.30;81.10;;;;;;5022987;28;20030;-68
2022/04/01 05:09:21;;;;;;;104.55;35.90;;;2.30;81.40;;;;;;5020521;28;20025;-67
2022/04/01 05:12:10;;;;;;;70.30;29.67;;;2.10;81.70;;;;;;5025125;28;20050;-69
2022/04/01 05:15:04;;;;;;;100.03;35.70;;;2.10;81.40;;;;;;5029909;28;20134;-69
2022/04/01 05:17:35;;;;;;;56.92;26.38;;;2.10;81.40;;;;;;5025153;28;20498;-69
2022/04/01 05:20:04;;;;;;;42.20;22.30;;;2.10;81.20;;;;;;5022513;28;20481;-69
2022/04/01 05:22:54;;;;;;;50.53;25.23;;;2.10;81.40;;;;;;5026660;28;20160;-68
2022/04/01 05:25:25;;;;;;;58.13;24.73;;;2.00;82.10;;;;;;5017052;28;20053;-68
2022/04/01 05:27:53;;;;;;;47.90;23.80;;;1.90;82.00;;;;;;5029318;28;20021;-68
2022/04/01 05:30:23;;;;;;;47.80;23.90;;;1.90;82.00;;;;;;5035090;28;20121;-68
2022/04/01 05:33:08;;;;;;;52.85;24.77;;;1.90;81.80;;;;;;5026470;28;20029;-68
2022/04/01 05:35:37;;;;;;;56.85;24.98;;;1.90;81.90;;;;;;5028084;28;20049;-68
2022/04/01 05:38:07;;;;;;;40.53;21.73;;;1.70;82.70;;;;;;5023941;28;20061;-68
2022/04/01 05:40:34;;;;;;;57.88;22.58;;;1.70;82.20;;;;;;5016323;28;20044;-69
2022/04/01 05:43:02;;;;;;;46.45;21.00;;;1.70;82.20;;;;;;5028138;28;20021;-69
2022/04/01 05:45:29;;;;;;;53.58;23.38;;;1.70;82.50;;;;;;5035938;28;20079;-68
2022/04/01 05:47:56;;;;;;;54.05;23.48;;;1.60;82.50;;;;;;5027462;28;20317;-69
2022/04/01 05:50:28;;;;;;;48.20;22.83;;;1.60;82.50;;;;;;5018388;28;20105;-69
2022/04/01 05:53:00;;;;;;;45.70;22.83;;;1.60;82.70;;;;;;5025187;28;20052;-68
2022/04/01 05:55:27;;;;;;;57.17;26.88;;;1.60;82.70;;;;;;5017126;28;20311;-69
2022/04/01 05:57:55;;;;;;;55.92;25.42;;;1.50;82.80;;;;;;5033180;28;20029;-68
2022/04/01 06:00:22;;;;;;;44.10;23.52;;;1.50;82.60;;;;;;5035659;28;20438;-68
2022/04/01 06:02:56;;;;;;;44.45;22.75;;;1.50;82.90;;;;;;5021933;28;20104;-68
2022/04/01 06:05:31;;;;;;;50.22;24.85;;;1.50;82.90;;;;;;5027315;28;20080;-67
2022/04/01 06:08:31;;;;;;;52.65;26.05;;;1.50;83.00;;;;;;5025751;28;20026;-67
2022/04/01 06:11:06;;;;;;;60.30;27.60;;;1.50;82.70;;;;;;5032254;28;20331;-67
2022/04/01 06:13:51;;;;;;;39.80;24.73;;;1.50;83.00;;;;;;5027656;28;20029;-67
2022/04/01 06:16:44;;;;;;;57.20;27.55;;;1.50;82.60;;;;;;5016607;28;20064;-69
2022/04/01 06:19:22;;;;;;;71.75;30.38;;;1.50;82.80;;;;;;5016649;28;20384;-69
2022/04/01 06:22:04;;;;;;;65.35;29.58;;;1.40;83.20;;;;;;5016649;28;20030;-69
2022/04/01 06:24:41;;;;;;;49.03;26.88;;;1.40;83.40;;;;;;5017056;28;20032;-69
2022/04/01 06:27:11;;;;;;;56.05;29.65;;;1.40;83.20;;;;;;5015939;28;20433;-69
2022/04/01 06:29:42;;;;;;;78.50;35.58;;;1.30;83.60;;;;;;5014299;28;20420;-69
2022/04/01 06:32:28;;;;;;;68.47;32.70;;;1.30;83.40;;;;;;5016860;28;20053;-69
2022/04/01 06:35:18;;;;;;;65.75;32.15;;;1.30;83.90;;;;;;5016275;28;20022;-69
2022/04/01 06:38:05;;;;;;;55.20;29.23;;;1.20;83.60;;;;;;5017605;28;20036;-69
2022/04/01 06:40:49;;;;;;;50.63;25.98;;;1.20;84.00;;;;;;5016391;28;20111;-69
2022/04/01 06:43:15;;;;;;;;;;;1.10;84.30;;;;;;5035507;28;20034;-68
2022/04/01 06:45:42;;;;;;;46.05;26.23;;;1.10;84.20;;;;;;5033316;28;19913;-69
2022/04/01 06:48:11;;;;;;;60.78;27.80;;;1.10;83.90;;;;;;5017062;28;20399;-68
2022/04/01 06:50:37;;;;;;;62.40;27.45;;;1.00;84.20;;;;;;5032733;28;20079;-68
2022/04/01 06:53:04;;;;;;;46.35;25.20;;;1.00;84.20;;;;;;5036226;28;20373;-69
2022/04/01 06:55:32;;;;;;;51.58;26.08;;;0.90;84.00;;;;;;5031271;28;20025;-68
2022/04/01 06:57:58;;;;;;;77.50;33.03;;;0.90;84.30;;;;;;5035873;28;20033;-69
2022/04/01 07:00:26;;;;;;;49.38;25.38;;;0.90;84.30;;;;;;5021611;28;20105;-69
2022/04/01 07:02:52;;;;;;;34.35;20.92;;;0.90;83.70;;;;;;5020131;28;20026;-69
2022/04/01 07:05:18;;;;;;;53.33;25.63;;;0.90;83.60;;;;;;5035381;28;20061;-69
2022/04/01 07:07:44;;;;;;;50.50;26.48;;;0.80;84.20;;;;;;5035894;28;20013;-68
2022/04/01 07:10:13;;;;;;;26.35;17.55;;;0.90;83.80;;;;;;5024750;28;20056;-69
2022/04/01 07:12:39;;;;;;;49.20;24.50;;;0.90;83.30;;;;;;5032512;28;20030;-69
2022/04/01 07:15:07;;;;;;;56.75;27.45;;;0.90;83.70;;;;;;5034244;28;20112;-69
2022/04/01 07:17:33;;;;;;;49.10;25.15;;;0.90;84.00;;;;;;5036113;28;20060;-69
2022/04/01 07:19:59;;;;;;;58.20;29.05;;;0.90;83.60;;;;;;5035722;28;20087;-69
2022/04/01 07:22:27;;;;;;;60.38;27.27;;;0.80;84.00;;;;;;5035878;28;20029;-69
2022/04/01 07:24:53;;;;;;;63.97;33.42;;;0.90;83.30;;;;;;5035630;28;20029;-69
2022/04/01 07:27:19;;;;;;;40.35;24.80;;;0.90;83.70;;;;;;5035623;28;20018;-68
2022/04/01 07:29:44;;;;;;;55.00;28.20;;;0.90;83.40;;;;;;5017309;28;20026;-68
2022/04/01 07:32:29;;;;;;;70.25;32.47;;;0.90;83.70;;;;;;5015900;28;20030;-69
2022/04/01 07:34:56;;;;;;;;;;;0.90;83.80;;;;;;5016408;28;20029;-69
2022/04/01 07:37:24;;;;;;;58.35;32.47;;;0.90;83.60;;;;;;5015911;28;19928;-69
2022/04/01 07:39:51;;;;;;;69.07;28.20;;;0.90;83.80;;;;;;5032533;28;20032;-69
2022/04/01 07:42:18;;;;;;;58.58;32.05;;;0.80;83.60;;;;;;5035541;28;20029;-69
2022/04/01 07:44:44;;;;;;;59.63;31.77;;;0.80;83.60;;;;;;5034574;28;20028;-68
2022/04/01 07:47:14;;;;;;;83.05;44.42;;;0.80;83.70;;;;;;5036657;28;20026;-69
2022/04/01 07:49:41;;;;;;;105.20;44.28;;;0.80;83.80;;;;;;5031560;28;20300;-69
2022/04/01 07:52:08;;;;;;;197.52;35.58;;;0.80;83.60;;;;;;5019460;28;20092;-69
2022/04/01 07:54:35;;;;;;;71.20;31.58;;;0.80;83.10;;;;;;5019619;28;20441;-68
2022/04/01 07:57:02;;;;;;;69.65;32.42;;;0.90;83.10;;;;;;5019487;28;20054;-69
2022/04/01 07:59:30;;;;;;;62.10;31.00;;;0.80;83.40;;;;;;5018150;28;20084;-69
2022/04/01 08:01:57;;;;;;;64.47;28.88;;;0.90;82.80;;;;;;5018296;28;20053;-69
2022/04/01 08:04:25;;;;;;;51.95;30.85;;;0.90;83.10;;;;;;5019481;28;20518;-70
2022/04/01 08:06:51;;;;;;;72.05;30.10;;;0.90;83.10;;;;;;5037717;28;20030;-68
2022/04/01 08:09:17;;;;;;;88.28;36.45;;;0.90;82.90;;;;;;5021477;28;20022;-69
2022/04/01 08:11:42;;;;;;;63.03;30.95;;;0.90;83.00;;;;;;5018834;28;20068;-69
2022/04/01 08:14:08;;;;;;;91.72;40.10;;;0.90;82.80;;;;;;5017995;28;20344;-71
2022/04/01 08:16:34;;;;;;;125.97;45.72;;;0.90;83.10;;;;;;5019006;28;20170;-69
2022/04/01 08:18:59;;;;;;;133.07;50.13;;;0.90;83.20;;;;;;5019074;28;20026;-68
2022/04/01 08:21:25;;;;;;;100.15;45.72;;;0.90;83.00;;;;;;5019035;28;20133;-69
2022/04/01 08:23:57;;;;;;;81.45;37.47;;;0.90;83.00;;;;;;5033083;28;20032;-68
2022/04/01 08:26:24;;;;;;;119.53;46.72;;;0.90;82.80;;;;;;5038588;28;20307;-68
2022/04/01 08:28:50;;;;;;;130.38;49.75;;;0.90;82.70;;;;;;5037624;28;20357;-70
2022/04/01 08:31:16;;;;;;;124.57;44.03;;;0.90;82.60;;;;;;5038620;28;20025;-69
2022/04/01 08:33:42;;;;;;;123.97;48.80;;;0.90;82.80;;;;;;5038650;28;20036;-69
2022/04/01 08:36:08;;;;;;;100.78;41.00;;;0.90;82.40;;;;;;5038507;28;20021;-69
2022/04/01 08:38:34;;;;;;;90.32;43.92;;;0.90;82.70;;;;;;5028789;28;20038;-69
2022/04/01 08:41:00;;;;;;;92.78;44.22;;;0.90;82.70;;;;;;5018560;28;20328;-69
2022/04/01 08:43:27;;;;;;;84.55;45.75;;;0.90;82.50;;;;;;5017516;28;20450;-69
2022/04/01 08:45:54;;;;;;;97.35;45.35;;;0.90;82.30;;;;;;5016367;28;20030;-70
2022/04/01 08:48:23;;;;;;;84.18;41.75;;;1.00;82.30;;;;;;5018464;28;20052;-70
2022/04/01 08:50:50;;;;;;;77.00;38.65;;;1.00;82.60;;;;;;5017454;28;20453;-69
2022/04/01 08:53:18;;;;;;;81.28;40.17;;;1.00;82.60;;;;;;5027286;28;20434;-69
2022/04/01 08:55:50;;;;;;;70.07;35.95;;;0.90;82.70;;;;;;5037019;28;20464;-69
2022/04/01 08:58:23;;;;;;;85.07;40.17;;;0.90;82.90;;;;;;5027077;28;20060;-68
2022/04/01 09:00:56;;;;;;;63.08;34.75;;;0.90;82.80;;;;;;5016968;28;20045;-67
2022/04/01 09:03:24;;;;;;;68.65;36.22;;;0.90;82.60;;;;;;5025102;28;20445;-67
2022/04/01 09:05:55;;;;;;;72.65;36.95;;;0.90;82.90;;;;;;5025772;28;20037;-67
2022/04/01 09:08:38;;;;;;;74.68;38.72;;;0.90;82.90;;;;;;5035179;28;20026;-67
2022/04/01 09:11:05;;;;;;;60.78;32.15;;;0.90;83.10;;;;;;5037320;28;20092;-70
2022/04/01 09:13:47;;;;;;;49.05;28.83;;;1.00;82.90;;;;;;5023162;28;20029;-70
2022/04/01 09:16:28;;;;;;;57.80;31.73;;;1.00;83.60;;;;;;5018112;28;20022;-70
2022/04/01 09:18:58;;;;;;;56.03;30.88;;;1.00;83.40;;;;;;5017767;28;20024;-69
2022/04/01 09:21:27;;;;;;;62.78;32.08;;;1.00;83.30;;;;;;5017695;28;20108;-70
2022/04/01 09:24:03;;;;;;;56.63;32.03;;;1.00;83.80;;;;;;5016617;28;20034;-70
2022/04/01 09:26:32;;;;;;;49.00;27.33;;;0.90;84.10;;;;;;5017683;28;20022;-70
2022/04/01 09:28:59;;;;;;;67.05;40.20;;;1.00;83.60;;;;;;5034827;28;20135;-69
2022/04/01 09:31:29;;;;;;;62.28;30.95;;;1.00;84.00;;;;;;5037471;28;20092;-69
2022/04/01 09:33:55;;;;;;;51.35;30.23;;;1.00;84.10;;;;;;5037317;28;20057;-70
2022/04/01 09:36:29;;;;;;;76.75;35.17;;;1.00;84.30;;;;;;5037160;28;20049;-69
2022/04/01 09:38:57;;;;;;;52.78;28.58;;;0.90;84.60;;;;;;5037241;28;20029;-69
2022/04/01 09:41:34;;;;;;;57.45;29.25;;;0.90;84.50;;;;;;5036293;28;20021;-69
2022/04/01 09:44:04;;;;;;;56.15;33.42;;;0.90;85.10;;;;;;5015966;28;20022;-68
2022/04/01 09:46:33;;;;;;;61.50;35.85;;;0.90;84.80;;;;;;5024259;28;20057;-68
2022/04/01 09:49:00;;;;;;;53.90;29.48;;;0.80;84.90;;;;;;5035105;28;20106;-69
2022/04/01 09:51:32;;;;;;;48.60;29.00;;;0.80;84.80;;;;;;5036795;28;20033;-69
2022/04/01 09:54:02;;;;;;;58.55;33.05;;;0.90;84.40;;;;;;5036058;28;20033;-69
2022/04/01 09:56:44;;;;;;;47.63;28.38;;;1.00;84.10;;;;;;5036985;28;20084;-70
2022/04/01 09:59:13;;;;;;;60.92;34.42;;;1.00;85.20;;;;;;5035533;28;20104;-69
2022/04/01 10:01:40;;;;;;;49.47;27.48;;;0.90;85.70;;;;;;5036874;28;20021;-69
2022/04/01 10:04:07;;;;;;;58.92;29.35;;;0.80;85.30;;;;;;5030829;28;20056;-67
2022/04/01 10:06:34;;;;;;;58.72;26.52;;;0.80;85.40;;;;;;5036980;28;20314;-67
2022/04/01 10:09:05;;;;;;;66.75;32.03;;;0.80;85.40;;;;;;5036684;28;20414;-69
2022/04/01 10:11:31;;;;;;;52.65;30.83;;;0.80;85.20;;;;;;5032916;28;20120;-68
2022/04/01 10:14:09;;;;;;;53.38;27.42;;;0.90;85.10;;;;;;5031022;28;20029;-69
2022/04/01 10:16:36;;;;;;;73.05;35.10;;;0.90;85.20;;;;;;5024826;28;20022;-68
2022/04/01 10:19:13;;;;;;;119.18;37.63;;;0.90;85.60;;;;;;5032926;28;20025;-68
2022/04/01 10:21:41;;;;;;;79.65;37.13;;;0.90;85.40;;;;;;5022681;28;20068;-68
2022/04/01 10:24:25;;;;;;;96.03;38.45;;;0.80;85.20;;;;;;5031794;28;20032;-67
2022/04/01 10:26:54;;;;;;;114.55;48.33;;;0.80;85.20;;;;;;5017460;28;20397;-68
2022/04/01 10:29:21;;;;;;;153.63;54.45;;;0.80;85.50;;;;;;5023472;28;20025;-67
2022/04/01 10:31:54;;;;;;;175.82;61.15;;;0.80;85.10;;;;;;5016382;28;20028;-67
2022/04/01 10:34:25;;;;;;;88.47;42.65;;;0.90;84.80;;;;;;5038835;28;20025;-68
2022/04/01 10:36:57;;;;;;;153.95;47.17;;;0.90;85.80;;;;;;5036111;28;20076;-68
2022/04/01 10:39:24;;;;;;;106.07;46.28;;;0.80;85.50;;;;;;5024390;28;20018;-68
2022/04/01 10:42:11;;;;;;;89.20;43.40;;;0.80;85.00;;;;;;5036100;28;20299;-67
2022/04/01 10:44:49;;;;;;;64.53;30.83;;;0.80;85.20;;;;;;5034011;28;20057;-68
2022/04/01 10:47:15;;;;;;;58.63;30.20;;;0.80;85.10;;;;;;5027500;28;20128;-66
2022/04/01 10:52:26;;;;;;;62.88;30.23;;;0.90;85.60;;;;;;5021353;28;20029;-68
2022/04/01 10:55:05;;;;;;;67.53;30.30;;;0.90;85.30;;;;;;5018278;28;20034;-68
2022/04/01 10:57:37;;;;;;;75.05;31.88;;;0.90;85.50;;;;;;5023366;28;20026;-66
2022/04/01 11:00:13;;;;;;;85.78;39.60;;;0.90;85.80;;;;;;5034481;28;20109;-67
2022/04/01 11:02:40;;;;;;;61.50;27.73;;;0.80;86.30;;;;;;5026537;28;20045;-67
2022/04/01 11:05:26;;;;;;;64.45;32.75;;;0.80;85.60;;;;;;5017059;28;20033;-68
2022/04/01 11:08:15;;;;;;;43.45;25.98;;;0.80;85.80;;;;;;5029617;28;20056;-67
2022/04/01 11:11:21;;;;;;;51.97;28.58;;;0.90;85.90;;;;;;5027254;28;20053;-68
2022/04/01 11:14:05;;;;;;;61.67;32.20;;;0.90;86.50;;;;;;5015445;28;20041;-68
2022/04/01 11:16:52;;;;;;;47.10;25.65;;;0.90;86.20;;;;;;5015948;28;20022;-68
2022/04/01 11:19:28;;;;;;;43.95;25.13;;;0.90;86.90;;;;;;5022577;28;20076;-68
2022/04/01 11:21:54;;;;;;;39.85;24.17;;;0.90;87.00;;;;;;5030282;28;20041;-66
2022/04/01 11:24:34;;;;;;;34.72;20.95;;;0.90;87.10;;;;;;5035418;28;20033;-68
2022/04/01 11:27:33;;;;;;;51.85;29.48;;;1.00;87.40;;;;;;5037188;28;20056;-66
2022/04/01 11:30:16;;;;;;;35.75;22.80;;;0.90;87.90;;;;;;5019235;28;20095;-67
2022/04/01 11:32:52;;;;;;;33.20;20.38;;;1.00;87.40;;;;;;5020962;28;20026;-68
2022/04/01 11:35:22;;;;;;;28.45;18.55;;;1.00;87.60;;;;;;5037396;28;20037;-67
2022/04/01 11:37:49;;;;;;;29.60;19.15;;;1.00;88.90;;;;;;5035448;28;20161;-67
2022/04/01 11:40:27;;;;;;;35.78;21.45;;;1.00;88.90;;;;;;5025637;28;20164;-67
2022/04/01 11:43:02;;;;;;;35.28;21.27;;;1.00;88.50;;;;;;5022569;28;20034;-68
2022/04/01 11:45:33;;;;;;;79.00;44.45;;;1.10;89.00;;;;;;5037215;28;20029;-68
2022/04/01 11:48:00;;;;;;;43.28;29.17;;;1.00;89.00;;;;;;5037471;28;20017;-68
2022/04/01 11:50:26;;;;;;;34.28;23.00;;;1.10;89.10;;;;;;5021259;28;20136;-67
2022/04/01 11:52:55;;;;;;;31.17;21.40;;;1.00;88.90;;;;;;5037649;28;20032;-66
2022/04/01 11:55:26;;;;;;;23.55;17.30;;;1.10;88.50;;;;;;5019441;28;20025;-66
2022/04/01 11:57:54;;;;;;;31.33;21.73;;;1.30;88.70;;;;;;5024646;28;20017;-66
2022/04/01 12:00:25;;;;;;;24.23;16.85;;;1.30;90.20;;;;;;5037841;28;20029;-66
2022/04/01 12:02:52;;;;;;;23.15;16.75;;;1.30;90.20;;;;;;5020237;28;20065;-66
2022/04/01 12:05:19;;;;;;;23.67;17.23;;;1.40;90.90;;;;;;5019365;28;20037;-68
2022/04/01 12:10:40;;;;;;;23.92;16.30;;;1.30;92.40;;;;;;5036757;28;20096;-68
2022/04/01 12:13:09;;;;;;;29.95;19.50;;;1.30;92.00;;;;;;5035763;28;20029;-68
2022/04/01 12:15:44;;;;;;;26.88;18.73;;;1.20;92.30;;;;;;5036996;28;20025;-67
2022/04/01 12:18:18;;;;;;;31.77;21.92;;;1.20;91.80;;;;;;5035577;28;20480;-67
2022/04/01 12:20:50;;;;;;;32.53;21.77;;;1.10;91.90;;;;;;5038180;28;20030;-68
2022/04/01 12:23:18;;;;;;;35.70;23.17;;;1.10;91.40;;;;;;5030020;28;20080;-67
2022/04/01 12:25:46;;;;;;;30.45;19.90;;;1.10;91.20;;;;;;5019834;28;20017;-67
2022/04/01 12:28:13;;;;;;;41.00;24.83;;;1.10;91.20;;;;;;5018916;28;20107;-67
2022/04/01 12:30:43;;;;;;;32.08;21.60;;;1.00;91.50;;;;;;5025626;28;20017;-67
2022/04/01 12:33:18;;;;;;;25.77;19.00;;;1.00;91.00;;;;;;5036355;28;20033;-67
2022/04/01 12:35:57;;;;;;;40.47;29.13;;;1.10;90.70;;;;;;5029630;28;20025;-67
2022/04/01 12:38:24;;;;;;;26.40;18.98;;;1.10;91.10;;;;;;5030149;28;20163;-68
2022/04/01 12:40:51;;;;;;;30.67;19.98;;;1.10;91.20;;;;;;5036677;28;20075;-67
2022/04/01 12:43:40;;;;;;;30.27;21.17;;;1.10;92.20;;;;;;5038611;28;20473;-67
2022/04/01 12:46:13;;;;;;;24.00;18.00;;;1.20;91.10;;;;;;5036408;28;20036;-67
2022/04/01 12:49:00;;;;;;;25.35;19.15;;;1.40;90.70;;;;;;5038307;28;20021;-68
2022/04/01 12:51:34;;;;;;;25.10;17.77;;;1.50;92.60;;;;;;5019988;28;20029;-68
2022/04/01 12:54:03;;;;;;;33.15;24.80;;;1.50;94.30;;;;;;5026096;28;20057;-68
2022/04/01 12:56:34;;;;;;;23.17;16.90;;;1.40;93.60;;;;;;5018368;28;20026;-67
2022/04/01 12:59:12;;;;;;;28.05;20.60;;;1.30;94.70;;;;;;5016379;28;20022;-67
2022/04/01 13:01:40;;;;;;;61.00;36.55;;;1.30;93.40;;;;;;5025075;28;20033;-68
2022/04/01 13:04:08;;;;;;;30.48;19.75;;;1.20;93.50;;;;;;5037308;28;20096;-68
2022/04/01 13:06:36;;;;;;;33.78;22.48;;;1.20;93.30;;;;;;5023872;28;20355;-68